Time;durP1;ratioP1;P1;durP2;ratioP2;P2;SDS_P1;SDS_P2;PMS_P1;PMS_P2;Temp;Humidity;BMP_temperature;BMP_pressure;BME280_temperature;BME280_humidity;BME280_pressure;Samples;Min_cycle;Max_cycle;Signal;HPM_P1;HPM_P2
2020/12/10 00:00:32;;;;;;;68.30;33.10;;;;;;;-2.49;89.45;98510.09;125217;1099;65190;-81
2020/12/10 00:03:03;;;;;;;60.63;33.07;;;;;;;-2.49;89.77;98506.63;125327;1099;65186;-81
2020/12/10 00:05:30;;;;;;;75.50;37.90;;;;;;;-2.49;89.23;98501.41;125218;1098;65227;-81
2020/12/10 00:07:57;;;;;;;67.53;33.90;;;;;;;-2.51;89.30;98493.60;124883;1098;65156;-81
2020/12/10 00:10:24;;;;;;;74.53;36.47;;;;;;;-2.49;89.85;98498.80;125228;1098;65643;-81
2020/12/10 00:12:51;;;;;;;74.83;34.73;;;;;;;-2.47;89.35;98497.02;125264;1098;65127;-81
2020/12/10 00:15:17;;;;;;;68.93;36.33;;;;;;;-2.44;89.36;98492.58;125240;1099;65266;-80
2020/12/10 00:17:44;;;;;;;70.60;36.60;;;;;;;-2.39;89.34;98494.23;125224;1098;65166;-81
2020/12/10 00:20:10;;;;;;;74.27;37.17;;;;;;;-2.39;89.33;98482.05;125245;1098;65166;-81
2020/12/10 00:22:37;;;;;;;70.57;38.07;;;;;;;-2.36;89.13;98483.73;125241;1098;65245;-80
2020/12/10 00:25:05;;;;;;;74.13;38.50;;;;;;;-2.35;89.04;98483.67;124851;1099;65159;-82
2020/12/10 00:27:34;;;;;;;72.77;37.50;;;;;;;-2.37;89.01;98488.09;125296;1099;65255;-80
2020/12/10 00:30:02;;;;;;;63.65;33.90;;;;;;;-2.36;89.49;98487.19;125355;1098;65246;-81
2020/12/10 00:32:29;;;;;;;65.73;35.10;;;;;;;-2.35;89.01;98483.67;125180;1098;65246;-82
2020/12/10 00:34:55;;;;;;;72.75;36.05;;;;;;;-2.36;89.02;98483.73;125166;1098;65150;-81
2020/12/10 00:37:24;;;;;;;71.80;36.73;;;;;;;-2.36;89.29;98483.73;125222;1098;65159;-81
2020/12/10 00:39:52;;;;;;;75.25;37.40;;;;;;;-2.36;89.71;98481.11;125244;1098;65185;-80
2020/12/10 00:42:19;;;;;;;67.33;34.90;;;;;;;-2.34;89.56;98476.70;125179;1098;65230;-80
2020/12/10 00:44:45;;;;;;;74.17;39.23;;;;;;;-2.38;89.18;98470.70;125198;1098;65118;-80
2020/12/10 00:47:15;;;;;;;73.37;36.43;;;;;;;-2.39;88.89;98473.37;125094;1098;65150;-80
2020/12/10 00:49:43;;;;;;;65.60;35.65;;;;;;;-2.41;89.01;98473.39;125234;1098;65202;-80
2020/12/10 00:52:10;;;;;;;63.10;33.90;;;;;;;-2.48;88.93;98474.41;125227;1098;65150;-81
2020/12/10 00:54:36;;;;;;;67.63;35.40;;;;;;;-2.48;89.82;98471.80;125303;1098;65268;-80
2020/12/10 00:57:07;;;;;;;64.13;34.77;;;;;;;-2.49;89.38;98483.14;124889;1098;65150;-81
2020/12/10 00:59:33;;;;;;;59.23;30.27;;;;;;;-2.51;89.71;98480.55;124881;1100;65207;-81
2020/12/10 01:02:00;;;;;;;58.50;29.97;;;;;;;-2.53;89.19;98461.47;124893;1100;65226;-81
2020/12/10 01:04:26;;;;;;;60.57;31.83;;;;;;;-2.55;89.88;98450.23;125344;1099;65124;-81
2020/12/10 01:06:53;;;;;;;59.10;31.33;;;;;;;-2.56;89.92;98453.71;125289;1098;65223;-81
2020/12/10 01:09:19;;;;;;;64.05;33.10;;;;;;;-2.55;89.89;98446.77;125291;1099;65067;-81
2020/12/10 01:11:46;;;;;;;55.90;29.93;;;;;;;-2.55;89.29;98442.41;125238;1098;65194;-81
2020/12/10 01:14:13;;;;;;;63.77;32.97;;;;;;;-2.58;89.85;98455.53;125273;1098;65157;-81
2020/12/10 01:16:39;;;;;;;59.67;31.83;;;;;;;-2.59;89.70;98445.97;125230;1098;65178;-80
2020/12/10 01:19:06;;;;;;;65.77;34.20;;;;;;;-2.62;90.05;98450.41;125252;1098;65265;-80
2020/12/10 01:21:34;;;;;;;61.87;34.80;;;;;;;-2.62;89.76;98446.04;125250;1098;65259;-81
2020/12/10 01:24:02;;;;;;;55.57;29.27;;;;;;;-2.61;89.55;98439.06;124913;1100;65192;-80
2020/12/10 01:26:33;;;;;;;62.43;33.53;;;;;;;-2.60;89.63;98440.80;125228;1098;65249;-80
2020/12/10 01:29:04;;;;;;;62.00;34.70;;;;;;;-2.62;89.78;98446.04;125259;1098;65133;-81
2020/12/10 01:31:31;;;;;;;56.93;29.43;;;;;;;-2.62;90.29;98437.36;125205;1100;65276;-81
2020/12/10 01:33:58;;;;;;;62.70;31.27;;;;;;;-2.66;90.26;98433.95;125246;1098;65147;-81
2020/12/10 01:36:28;;;;;;;62.60;33.17;;;;;;;-2.68;90.22;98434.00;125260;1098;65594;-81
2020/12/10 01:38:56;;;;;;;56.20;30.50;;;;;;;-2.68;89.84;98431.39;125302;1098;65160;-80
2020/12/10 01:41:33;;;;;;;62.17;34.97;;;;;;;-2.69;89.59;98431.41;125248;1099;65224;-81
2020/12/10 01:44:05;;;;;;;64.07;33.90;;;;;;;-2.67;90.41;98421.81;125215;1098;65233;-81
2020/12/10 01:46:33;;;;;;;61.20;31.83;;;;;;;-2.67;90.05;98425.27;124920;1100;65268;-80
2020/12/10 01:49:01;;;;;;;59.50;31.47;;;;;;;-2.65;89.77;98438.29;125193;1098;65178;-80
2020/12/10 01:51:30;;;;;;;58.90;31.70;;;;;;;-2.66;89.72;98432.22;125189;1098;65246;-80
2020/12/10 01:54:00;;;;;;;55.37;26.97;;;;;;;-2.67;90.09;98419.20;125251;1098;65073;-81
2020/12/10 01:56:28;;;;;;;50.97;29.03;;;;;;;-2.67;89.89;98425.27;125308;1098;65332;-81
2020/12/10 01:58:55;;;;;;;55.85;30.05;;;;;;;-2.67;89.75;98419.20;125360;1098;65591;-81
2020/12/10 02:01:21;;;;;;;59.10;30.55;;;;;;;-2.65;90.50;98420.03;125268;1098;65133;-81
2020/12/10 02:03:48;;;;;;;53.67;26.90;;;;;;;-2.65;90.29;98423.49;125321;1098;65182;-80
2020/12/10 02:06:14;;;;;;;51.27;27.57;;;;;;;-2.66;89.86;98411.36;125197;1099;65130;-81
2020/12/10 02:08:42;;;;;;;45.83;23.97;;;;;;;-2.67;90.20;98414.84;125246;1098;65316;-80
2020/12/10 02:11:10;;;;;;;49.63;28.20;;;;;;;-2.70;90.25;98409.70;125288;1098;65095;-80
2020/12/10 02:13:37;;;;;;;53.63;28.53;;;;;;;-2.68;90.15;98412.28;125275;1098;65236;-81
2020/12/10 02:16:05;;;;;;;47.85;25.80;;;;;;;-2.65;89.73;98410.45;125232;1099;65150;-81
2020/12/10 02:18:31;;;;;;;48.30;26.00;;;;;;;-2.63;90.20;98405.21;125323;1098;65124;-80
2020/12/10 02:20:58;;;;;;;53.20;24.93;;;;;;;-2.65;90.35;98394.80;125249;1098;65204;-80
2020/12/10 02:23:25;;;;;;;41.37;25.00;;;;;;;-2.68;90.47;98402.70;125322;1098;65179;-80
2020/12/10 02:25:53;;;;;;;50.03;25.40;;;;;;;-2.69;90.53;98400.97;124876;1098;65200;-81
2020/12/10 02:28:20;;;;;;;48.80;24.20;;;;;;;-2.70;90.73;98394.05;124890;1100;65147;-80
2020/12/10 02:30:48;;;;;;;51.05;28.15;;;;;;;-2.69;89.96;98395.75;125266;1098;65153;-80
2020/12/10 02:33:14;;;;;;;58.00;26.90;;;;;;;-2.69;90.80;98395.75;124956;1099;65233;-80
2020/12/10 02:35:42;;;;;;;52.40;28.80;;;;;;;-2.68;90.76;98387.05;125286;1098;65198;-81
2020/12/10 02:38:10;;;;;;;46.60;24.57;;;;;;;-2.67;90.73;98393.97;125220;1098;65352;-80
2020/12/10 02:40:40;;;;;;;55.20;28.40;;;;;;;-2.66;90.65;98393.10;125336;1098;65147;-81
2020/12/10 02:43:07;;;;;;;49.37;26.33;;;;;;;-2.63;90.26;98388.68;125320;1099;65594;-81
2020/12/10 02:45:34;;;;;;;48.30;26.87;;;;;;;-2.63;90.27;98386.07;124894;1100;65214;-81
2020/12/10 02:48:00;;;;;;;49.40;27.03;;;;;;;-2.65;89.76;98388.73;125332;1098;65131;-81
2020/12/10 02:50:27;;;;;;;54.50;27.07;;;;;;;-2.64;90.32;98382.61;125247;1098;65149;-81
2020/12/10 02:52:53;;;;;;;51.17;27.33;;;;;;;-2.62;90.73;98390.41;125335;1099;65127;-81
2020/12/10 02:55:20;;;;;;;53.67;27.23;;;;;;;-2.63;90.31;98386.07;125299;1099;65152;-81
2020/12/10 02:57:46;;;;;;;52.57;28.37;;;;;;;-2.63;89.98;98373.03;125208;1098;65314;-81
2020/12/10 03:00:28;;;;;;;54.30;28.57;;;;;;;-2.62;90.37;98369.55;125196;1098;65172;-81
2020/12/10 03:02:55;;;;;;;53.97;28.93;;;;;;;-2.62;90.01;98367.79;124881;1098;65166;-81
2020/12/10 03:05:22;;;;;;;56.57;29.53;;;;;;;-2.62;89.99;98373.01;125355;1098;65121;-81
2020/12/10 03:07:48;;;;;;;52.77;29.70;;;;;;;-2.61;90.00;98363.42;124946;1100;65134;-81
2020/12/10 03:10:15;;;;;;;53.90;28.55;;;;;;;-2.60;90.51;98355.58;125284;1098;66291;-81
2020/12/10 03:12:42;;;;;;;50.33;26.20;;;;;;;-2.62;89.89;98362.58;125243;1098;65115;-81
2020/12/10 03:15:08;;;;;;;56.97;30.60;;;;;;;-2.63;90.51;98349.55;125291;1099;65172;-80
2020/12/10 03:17:35;;;;;;;57.40;29.23;;;;;;;-2.65;89.86;98353.07;125354;1098;65614;-81
2020/12/10 03:20:02;;;;;;;51.60;28.03;;;;;;;-2.63;90.08;98345.22;125288;1098;65166;-81
2020/12/10 03:22:28;;;;;;;50.20;27.47;;;;;;;-2.63;90.35;98346.95;125235;1100;65239;-81
2020/12/10 03:24:54;;;;;;;54.27;29.87;;;;;;;-2.63;90.27;98339.13;125142;1098;65120;-81
2020/12/10 03:27:21;;;;;;;51.27;28.97;;;;;;;-2.63;90.30;98337.39;125327;1098;65207;-81
2020/12/10 03:29:47;;;;;;;57.43;28.93;;;;;;;-2.61;90.77;98327.76;125344;1098;65233;-81
2020/12/10 03:32:14;;;;;;;61.17;30.77;;;;;;;-2.60;91.03;98332.09;125254;1098;65102;-81
2020/12/10 03:34:40;;;;;;;55.37;28.87;;;;;;;-2.63;90.14;98340.00;125339;1098;65235;-81
2020/12/10 03:37:07;;;;;;;57.83;29.43;;;;;;;-2.64;90.82;98346.09;125254;1100;65176;-79
2020/12/10 03:39:33;;;;;;;58.50;29.90;;;;;;;-2.62;90.76;98336.48;124837;1099;65182;-81
2020/12/10 03:42:00;;;;;;;58.40;30.57;;;;;;;-2.61;90.74;98334.73;125272;1098;65201;-81
2020/12/10 03:44:27;;;;;;;55.60;29.20;;;;;;;-2.59;90.47;98319.91;124908;1099;65259;-81
2020/12/10 03:46:54;;;;;;;54.40;29.77;;;;;;;-2.57;90.79;98339.84;124891;1100;65275;-81
2020/12/10 03:49:21;;;;;;;65.27;32.10;;;;;;;-2.54;90.27;98328.48;125339;1099;65195;-81
2020/12/10 03:51:47;;;;;;;60.33;32.37;;;;;;;-2.51;90.18;98326.64;125249;1098;65252;-81
2020/12/10 03:54:14;;;;;;;56.47;28.43;;;;;;;-2.49;89.98;98329.22;124894;1099;65198;-80
2020/12/10 03:56:41;;;;;;;57.03;30.80;;;;;;;-2.51;89.93;98325.78;124922;1100;65271;-81
2020/12/10 03:59:07;;;;;;;56.40;30.47;;;;;;;-2.51;90.05;98331.86;125330;1098;65274;-81
2020/12/10 04:01:34;;;;;;;61.93;32.53;;;;;;;-2.50;90.05;98327.48;125245;1098;65233;-81
2020/12/10 04:04:00;;;;;;;64.50;32.70;;;;;;;-2.49;90.67;98332.68;125380;1098;65577;-81
2020/12/10 04:06:27;;;;;;;66.85;33.75;;;;;;;-2.49;90.14;98329.22;124933;1099;65162;-81
2020/12/10 04:08:53;;;;;;;67.90;33.30;;;;;;;-2.47;90.58;98330.90;125224;1098;65150;-81
2020/12/10 04:11:21;;;;;;;64.77;32.77;;;;;;;-2.45;90.31;98331.72;125189;1098;65223;-81
2020/12/10 04:13:47;;;;;;;65.97;31.87;;;;;;;-2.44;89.84;98330.81;125170;1098;65274;-81
2020/12/10 04:16:14;;;;;;;59.15;28.85;;;;;;;-2.45;90.29;98325.63;125153;1098;65102;-81
2020/12/10 04:18:42;;;;;;;68.80;31.33;;;;;;;-2.48;90.27;98313.51;125173;1098;65194;-81
2020/12/10 04:21:11;;;;;;;63.53;32.40;;;;;;;-2.49;89.88;98318.78;125343;1098;65204;-81
2020/12/10 04:23:38;;;;;;;62.88;31.60;;;;;;;-2.50;90.61;98320.55;125277;1098;65198;-81
2020/12/10 04:26:05;;;;;;;52.50;25.07;;;;;;;-2.51;90.05;98317.96;125355;1098;65156;-80
2020/12/10 04:28:31;;;;;;;51.97;26.83;;;;;;;-2.52;90.60;98308.44;125301;1098;65225;-80
2020/12/10 04:30:58;;;;;;;58.87;28.83;;;;;;;-2.54;90.02;98303.24;125000;1100;65173;-81
2020/12/10 04:33:24;;;;;;;53.47;26.03;;;;;;;-2.52;90.11;98311.89;124967;1100;65252;-80
2020/12/10 04:35:51;;;;;;;53.90;27.07;;;;;;;-2.54;90.33;98311.07;125296;1098;65184;-82
2020/12/10 04:38:18;;;;;;;59.27;30.20;;;;;;;-2.56;90.10;98306.78;124862;1098;65156;-81
2020/12/10 04:40:44;;;;;;;55.63;27.67;;;;;;;-2.56;89.97;98309.39;124854;1099;65150;-82
2020/12/10 04:43:12;;;;;;;59.47;32.13;;;;;;;-2.57;89.98;98295.50;125590;1098;65125;-81
2020/12/10 04:45:39;;;;;;;60.27;28.90;;;;;;;-2.54;90.42;98305.00;125660;1099;65113;-80
2020/12/10 04:48:06;;;;;;;52.45;27.40;;;;;;;-2.51;90.27;98302.31;126630;1099;65393;-81
2020/12/10 04:50:36;;;;;;;59.10;30.73;;;;;;;-2.48;89.92;98305.69;126017;1099;65246;-81
2020/12/10 04:53:02;;;;;;;58.43;27.17;;;;;;;-2.46;89.79;98305.66;125228;1099;65240;-83
2020/12/10 04:55:30;;;;;;;53.63;27.60;;;;;;;-2.47;90.07;98296.98;125191;1098;65176;-81
2020/12/10 04:57:59;;;;;;;54.33;27.43;;;;;;;-2.46;90.26;98298.68;125184;1098;65261;-81
2020/12/10 05:00:28;;;;;;;57.20;29.05;;;;;;;-2.46;90.32;98284.79;125346;1098;65160;-82
2020/12/10 05:02:54;;;;;;;58.47;28.60;;;;;;;-2.48;89.68;98286.57;125346;1098;65239;-81
2020/12/10 05:05:26;;;;;;;57.07;29.80;;;;;;;-2.49;90.58;98283.11;125234;1098;65156;-81
2020/12/10 05:07:56;;;;;;;60.27;30.33;;;;;;;-2.49;90.39;98285.72;125235;1098;65162;-81
2020/12/10 05:10:23;;;;;;;61.33;28.77;;;;;;;-2.48;90.46;98282.20;124944;1098;65217;-81
2020/12/10 05:12:50;;;;;;;60.47;27.53;;;;;;;-2.47;89.94;98283.09;125237;1098;65214;-81
2020/12/10 05:15:31;;;;;;;59.53;27.70;;;;;;;-2.49;90.10;98279.66;124851;1100;65126;-81
2020/12/10 05:18:06;;;;;;;56.20;29.50;;;;;;;-2.49;90.00;98288.33;124955;1098;65198;-81
2020/12/10 05:21:01;;;;;;;58.10;29.23;;;;;;;-2.49;90.08;98277.89;125399;1099;65171;-81
2020/12/10 05:23:31;;;;;;;56.83;28.63;;;;;;;-2.52;90.44;98275.38;125222;1098;65173;-81
2020/12/10 05:26:02;;;;;;;47.40;23.97;;;;;;;-2.52;90.01;98261.48;125340;1098;65387;-80
2020/12/10 05:28:39;;;;;;;58.13;26.30;;;;;;;-2.54;90.73;98260.66;125318;1098;65229;-83
2020/12/10 05:31:13;;;;;;;46.90;25.40;;;;;;;-2.53;90.39;98262.36;124857;1100;65254;-80
2020/12/10 05:33:55;;;;;;;47.70;24.27;;;;;;;-2.54;90.38;98271.09;125259;1098;65271;-80
2020/12/10 05:36:23;;;;;;;48.83;26.80;;;;;;;-2.56;90.59;98268.51;125293;1098;65201;-80
2020/12/10 05:39:05;;;;;;;48.23;26.77;;;;;;;-2.55;90.17;98272.84;125284;1098;65328;-80
2020/12/10 05:41:33;;;;;;;54.80;27.17;;;;;;;-2.53;90.08;98275.40;125167;1099;65134;-82
2020/12/10 05:44:14;;;;;;;53.25;27.80;;;;;;;-2.51;90.76;98271.00;125436;1098;65255;-80
2020/12/10 05:46:41;;;;;;;49.85;26.85;;;;;;;-2.51;90.66;98271.00;125198;1099;65291;-81
2020/12/10 05:49:10;;;;;;;54.70;29.17;;;;;;;-2.49;90.34;98266.61;125258;1098;65282;-81
2020/12/10 05:51:44;;;;;;;53.77;26.47;;;;;;;-2.47;90.70;98257.00;125241;1098;65156;-81
2020/12/10 05:54:13;;;;;;;46.15;25.10;;;;;;;-2.45;90.54;98253.45;124870;1098;65188;-81
2020/12/10 05:56:51;;;;;;;56.77;27.13;;;;;;;-2.44;90.08;98256.91;125353;1098;65144;-81
2020/12/10 05:59:17;;;;;;;45.97;25.13;;;;;;;-2.46;90.14;98256.09;125373;1098;65147;-80
2020/12/10 06:01:46;;;;;;;50.77;27.07;;;;;;;-2.45;90.44;98249.96;125402;1099;65169;-80
2020/12/10 06:04:14;;;;;;;48.53;26.20;;;;;;;-2.44;90.52;98260.38;125247;1100;65188;-80
2020/12/10 06:06:40;;;;;;;50.47;25.30;;;;;;;-2.42;89.79;98255.13;124846;1100;65236;-80
2020/12/10 06:09:09;;;;;;;53.15;28.25;;;;;;;-2.40;89.85;98260.28;125241;1098;65822;-80
2020/12/10 06:11:37;;;;;;;55.97;27.93;;;;;;;-2.37;90.07;98247.15;125384;1098;65147;-80
2020/12/10 06:14:06;;;;;;;56.37;27.33;;;;;;;-2.37;90.57;98253.25;124977;1100;65261;-80
2020/12/10 06:16:35;;;;;;;55.67;29.27;;;;;;;-2.34;90.13;98255.77;125277;1098;65246;-80
2020/12/10 06:19:14;;;;;;;51.92;26.02;;;;;;;-2.36;89.81;98251.49;125347;1099;65185;-80
2020/12/10 06:21:43;;;;;;;47.40;24.65;;;;;;;-2.38;89.85;98243.69;125362;1098;65223;-80
2020/12/10 06:24:25;;;;;;;55.17;27.20;;;;;;;-2.39;89.89;98244.60;125390;1098;65159;-80
2020/12/10 06:26:55;;;;;;;44.50;23.27;;;;;;;-2.37;89.78;98252.38;125204;1098;65144;-80
2020/12/10 06:29:27;;;;;;;51.60;26.60;;;;;;;-2.37;90.12;98253.25;125196;1098;65256;-80
2020/12/10 06:32:08;;;;;;;49.40;26.53;;;;;;;-2.36;90.18;98247.13;125275;1098;65133;-80
2020/12/10 06:34:50;;;;;;;49.60;24.07;;;;;;;-2.35;90.01;98253.19;125288;1098;65182;-80
2020/12/10 06:37:26;;;;;;;50.17;24.47;;;;;;;-2.36;90.16;98248.88;125243;1098;65316;-80
2020/12/10 06:39:57;;;;;;;49.67;25.87;;;;;;;-2.37;90.51;98242.81;125255;1098;65144;-80
2020/12/10 06:42:24;;;;;;;42.30;25.80;;;;;;;-2.36;90.30;98241.91;124892;1100;65184;-80
2020/12/10 06:44:51;;;;;;;46.17;25.83;;;;;;;-2.35;90.19;98240.99;125302;1098;65210;-80
2020/12/10 06:47:18;;;;;;;53.40;27.13;;;;;;;-2.32;90.03;98240.91;124917;1098;65179;-80
2020/12/10 06:49:45;;;;;;;54.93;28.83;;;;;;;-2.30;90.09;98241.73;124938;1098;65169;-80
2020/12/10 06:52:18;;;;;;;43.97;23.40;;;;;;;-2.28;90.41;98241.70;125317;1098;65144;-81
2020/12/10 06:55:11;;;;;;;44.10;24.50;;;;;;;-2.34;90.33;98245.34;125303;1098;65253;-80
2020/12/10 06:57:52;;;;;;;38.50;22.40;;;;;;;-2.36;89.76;98236.69;124908;1099;65252;-80
2020/12/10 07:00:51;;;;;;;42.53;22.80;;;;;;;-2.38;90.27;98238.47;125214;1098;65141;-80
2020/12/10 07:03:25;;;;;;;39.00;21.93;;;;;;;-2.38;89.78;98233.25;125116;1098;65057;-80
2020/12/10 07:05:52;;;;;;;41.23;22.67;;;;;;;-2.40;89.53;98240.26;125180;1098;65140;-80
2020/12/10 07:08:20;;;;;;;41.03;24.33;;;;;;;-2.39;90.02;98233.31;125251;1098;65143;-80
2020/12/10 07:10:49;;;;;;;38.30;22.87;;;;;;;-2.39;89.56;98233.31;125160;1098;65499;-80
2020/12/10 07:13:29;;;;;;;37.95;23.35;;;;;;;-2.39;90.01;98226.34;125196;1098;65239;-80
2020/12/10 07:15:56;;;;;;;40.63;24.20;;;;;;;-2.36;89.62;98233.23;125225;1099;65140;-81
2020/12/10 07:18:22;;;;;;;45.13;24.93;;;;;;;-2.34;89.76;98227.06;125253;1098;65117;-82
2020/12/10 07:20:49;;;;;;;40.50;23.30;;;;;;;-2.33;90.18;98226.16;125280;1098;65230;-81
2020/12/10 07:23:15;;;;;;;41.73;23.97;;;;;;;-2.30;90.13;98233.05;125331;1098;65086;-81
2020/12/10 07:25:42;;;;;;;40.77;22.07;;;;;;;-2.32;89.66;98227.86;125331;1098;65176;-80
2020/12/10 07:28:08;;;;;;;39.10;22.37;;;;;;;-2.34;90.10;98221.85;125346;1098;65166;-80
2020/12/10 07:30:34;;;;;;;36.97;19.60;;;;;;;-2.35;89.73;98240.14;125357;1098;65236;-80
2020/12/10 07:33:04;;;;;;;44.03;24.43;;;;;;;-2.36;89.59;98222.79;124943;1100;65303;-81
2020/12/10 07:35:33;;;;;;;40.80;22.58;;;;;;;-2.36;90.10;98233.23;125328;1098;65124;-81
2020/12/10 07:38:14;;;;;;;44.70;21.60;;;;;;;-2.36;89.74;98228.01;125250;1099;65127;-81
2020/12/10 07:40:41;;;;;;;43.20;22.20;;;;;;;-2.35;89.97;98227.09;124905;1098;65226;-81
2020/12/10 07:43:10;;;;;;;39.80;20.90;;;;;;;-2.32;89.78;98224.40;125367;1099;65146;-84
2020/12/10 07:45:37;;;;;;;39.20;22.47;;;;;;;-2.31;89.86;98221.77;125315;1098;65169;-86
2020/12/10 07:48:06;;;;;;;41.70;21.90;;;;;;;-2.28;89.71;98219.06;125509;1098;65153;-84
2020/12/10 07:50:38;;;;;;;34.53;20.90;;;;;;;-2.23;89.75;98211.11;125129;1099;65166;-84
2020/12/10 07:53:07;;;;;;;36.03;20.20;;;;;;;-2.20;89.39;98203.19;125509;1099;65086;-84
2020/12/10 07:55:35;;;;;;;;;;;;;;;-2.16;89.43;98210.02;125417;1098;65166;-80
2020/12/10 07:58:11;;;;;;;33.60;20.37;;;;;;;-2.15;89.46;98201.30;125232;1098;65127;-80
2020/12/10 08:00:39;;;;;;;37.77;19.97;;;;;;;-2.13;88.99;98199.52;125425;1098;65179;-80
2020/12/10 08:03:21;;;;;;;32.47;20.53;;;;;;;-2.10;88.94;98214.23;124932;1098;65294;-80
2020/12/10 08:06:16;;;;;;;33.77;19.07;;;;;;;-2.06;89.39;98206.25;125319;1099;65151;-80
2020/12/10 08:08:55;;;;;;;32.07;19.87;;;;;;;-2.02;89.21;98194.83;125181;1098;65207;-80
2020/12/10 08:11:22;;;;;;;27.32;17.15;;;;;;;-1.99;88.34;98194.73;125263;1098;65232;-80
2020/12/10 08:14:08;;;;;;;30.20;18.23;;;;;;;-1.95;88.82;98195.48;125386;1098;65147;-80
2020/12/10 08:16:37;;;;;;;31.67;18.10;;;;;;;-1.92;88.44;98195.42;125220;1098;65102;-80
2020/12/10 08:19:34;;;;;;;30.00;19.20;;;;;;;-1.88;88.07;98197.02;125263;1098;65253;-79
2020/12/10 08:22:16;;;;;;;30.73;18.87;;;;;;;-1.83;88.18;98187.30;125148;1098;65159;-80
2020/12/10 08:24:44;;;;;;;32.53;18.90;;;;;;;-1.77;88.54;98189.72;124894;1100;65297;-80
2020/12/10 08:27:16;;;;;;;33.70;20.10;;;;;;;-1.71;88.85;98193.05;125245;1098;65143;-80
2020/12/10 08:30:03;;;;;;;33.97;19.40;;;;;;;-1.63;88.76;98191.08;124954;1098;65187;-80
2020/12/10 08:32:30;;;;;;;28.47;17.53;;;;;;;-1.58;87.98;98182.20;125331;1098;65217;-80
2020/12/10 08:35:05;;;;;;;29.13;18.83;;;;;;;-1.57;87.99;98180.43;125205;1098;65239;-80
2020/12/10 08:37:40;;;;;;;30.35;18.70;;;;;;;-1.56;88.28;98182.98;125276;1098;65138;-80
2020/12/10 08:40:07;;;;;;;30.27;18.20;;;;;;;-1.58;87.97;98176.97;124923;1100;65157;-81
2020/12/10 08:42:34;;;;;;;34.77;20.00;;;;;;;-1.57;88.52;98183.05;124935;1100;65603;-80
2020/12/10 08:45:00;;;;;;;33.23;20.90;;;;;;;-1.56;88.65;98182.13;125275;1098;65140;-80
2020/12/10 08:47:31;;;;;;;31.80;19.70;;;;;;;-1.51;88.12;98176.77;125190;1098;65492;-80
2020/12/10 08:50:27;;;;;;;36.20;21.93;;;;;;;-1.46;88.42;98167.02;125295;1098;65128;-80
2020/12/10 08:53:00;;;;;;;37.30;21.37;;;;;;;-1.41;88.43;98157.28;125324;1098;65154;-80
2020/12/10 08:55:48;;;;;;;;;;;;;;;-1.37;88.41;98161.48;125378;1098;65126;-80
2020/12/10 08:58:21;;;;;;;35.45;20.95;;;;;;;-1.33;87.87;98150.89;125345;1098;65172;-82
2020/12/10 09:00:48;;;;;;;32.97;20.20;;;;;;;-1.29;88.37;98153.41;125428;1098;65193;-80
2020/12/10 09:03:15;;;;;;;33.80;21.25;;;;;;;-1.29;88.03;98156.90;125229;1098;65246;-80
2020/12/10 09:05:42;;;;;;;35.53;20.53;;;;;;;-1.28;88.14;98155.13;125258;1098;65173;-81
2020/12/10 09:08:09;;;;;;;32.40;19.20;;;;;;;-1.31;87.63;98160.46;125257;1098;65134;-80
2020/12/10 09:10:37;;;;;;;33.65;20.85;;;;;;;-1.36;87.94;98145.77;125296;1098;65133;-80
2020/12/10 09:13:03;;;;;;;31.55;20.45;;;;;;;-1.38;87.71;98151.95;125236;1098;65485;-80
2020/12/10 09:15:30;;;;;;;29.63;19.13;;;;;;;-1.36;87.96;98140.55;124858;1100;65258;-80
2020/12/10 09:17:57;;;;;;;30.60;19.17;;;;;;;-1.33;87.63;98140.44;125392;1098;65179;-81
2020/12/10 09:20:24;;;;;;;28.00;17.35;;;;;;;-1.30;88.30;98143.86;124781;1099;65169;-81
2020/12/10 09:22:50;;;;;;;26.40;16.60;;;;;;;-1.33;87.59;98132.59;125176;1100;65259;-81
2020/12/10 09:25:17;;;;;;;27.33;17.90;;;;;;;-1.39;87.41;98132.81;124845;1099;65076;-80
2020/12/10 09:27:43;;;;;;;26.37;17.13;;;;;;;-1.37;87.54;98130.12;125252;1098;65288;-80
2020/12/10 09:30:11;;;;;;;27.57;17.47;;;;;;;-1.38;88.16;98124.05;125255;1098;65168;-80
2020/12/10 09:32:41;;;;;;;23.30;15.00;;;;;;;-1.39;87.73;98124.13;125352;1098;65194;-80
2020/12/10 09:35:11;;;;;;;24.90;17.00;;;;;;;-1.41;88.14;98116.32;125264;1099;65144;-80
2020/12/10 09:37:39;;;;;;;25.60;16.90;;;;;;;-1.38;87.44;98117.98;125348;1098;65147;-80
2020/12/10 09:40:09;;;;;;;24.97;15.93;;;;;;;-1.35;87.87;98113.49;125238;1098;65357;-80
2020/12/10 09:42:40;;;;;;;25.97;15.35;;;;;;;-1.27;88.24;98115.85;125320;1098;65185;-80
2020/12/10 09:45:06;;;;;;;25.83;15.47;;;;;;;-1.20;87.30;98113.91;125256;1098;65194;-80
2020/12/10 09:47:33;;;;;;;26.67;16.30;;;;;;;-1.11;87.98;98114.45;125354;1098;65099;-80
2020/12/10 09:50:01;;;;;;;25.73;16.97;;;;;;;-1.01;87.14;98108.89;125318;1099;65147;-81
2020/12/10 09:52:29;;;;;;;26.80;17.07;;;;;;;-0.93;87.57;98107.71;124965;1100;65237;-81
2020/12/10 09:55:04;;;;;;;23.27;16.07;;;;;;;-0.83;87.48;98107.41;125371;1099;65323;-85
2020/12/10 09:57:32;;;;;;;24.55;17.20;;;;;;;-0.80;86.97;98104.67;125825;1099;65294;-81
2020/12/10 10:00:00;;;;;;;24.53;15.80;;;;;;;-0.74;86.89;98099.21;125393;1098;65130;-80
2020/12/10 10:02:28;;;;;;;22.67;15.20;;;;;;;-0.72;86.37;98102.64;125343;1098;65136;-80
2020/12/10 10:04:54;;;;;;;19.83;14.07;;;;;;;-0.69;86.75;98098.13;125120;1098;65200;-81
2020/12/10 10:07:21;;;;;;;20.15;15.05;;;;;;;-0.63;86.59;98098.83;125170;1098;65175;-83
2020/12/10 10:09:48;;;;;;;19.93;14.73;;;;;;;-0.57;86.36;98102.09;125164;1099;65642;-80
2020/12/10 10:12:15;;;;;;;22.13;16.03;;;;;;;-0.63;85.63;98089.23;125197;1098;65171;-82
2020/12/10 10:14:42;;;;;;;21.20;14.53;;;;;;;-0.63;85.33;98085.73;125185;1098;65240;-81
2020/12/10 10:17:10;;;;;;;23.27;14.87;;;;;;;-0.60;85.31;98085.66;125160;1098;65230;-80
2020/12/10 10:19:38;;;;;;;20.90;14.37;;;;;;;-0.55;85.19;98081.11;124821;1100;65121;-80
2020/12/10 10:22:05;;;;;;;22.53;14.50;;;;;;;-0.50;85.26;98085.26;125263;1099;65130;-83
2020/12/10 10:24:32;;;;;;;17.97;13.43;;;;;;;-0.46;84.40;98081.59;124952;1098;65118;-80
2020/12/10 10:26:59;;;;;;;21.50;14.85;;;;;;;-0.42;84.80;98071.89;124835;1100;65237;-82
2020/12/10 10:29:26;;;;;;;22.53;15.67;;;;;;;-0.34;84.53;98069.84;124810;1099;65243;-80
2020/12/10 10:31:53;;;;;;;19.83;14.10;;;;;;;-0.25;84.38;98060.77;125199;1098;65591;-80
2020/12/10 10:34:19;;;;;;;23.20;15.10;;;;;;;-0.29;84.24;98065.28;125169;1098;65210;-80
2020/12/10 10:36:49;;;;;;;21.40;14.77;;;;;;;-0.24;84.46;98065.08;125239;1099;65134;-80
2020/12/10 10:39:16;;;;;;;22.67;13.77;;;;;;;-0.23;84.37;98062.41;125227;1098;65080;-80
2020/12/10 10:41:46;;;;;;;24.85;15.35;;;;;;;-0.21;84.13;98059.75;125164;1098;65127;-80
2020/12/10 10:44:13;;;;;;;25.50;15.67;;;;;;;-0.25;83.92;98053.76;125206;1099;65563;-80
2020/12/10 10:46:40;;;;;;;22.70;15.57;;;;;;;-0.26;84.32;98056.45;124868;1100;65243;-80
2020/12/10 10:49:06;;;;;;;21.03;14.53;;;;;;;-0.25;84.33;98045.05;125274;1098;65152;-80
2020/12/10 10:51:33;;;;;;;23.43;16.20;;;;;;;-0.24;84.85;98046.75;125255;1098;65380;-80
2020/12/10 10:54:02;;;;;;;22.23;15.67;;;;;;;-0.25;84.18;98045.91;125076;1099;65130;-80
2020/12/10 10:56:28;;;;;;;22.27;14.63;;;;;;;-0.30;83.04;98034.75;124873;1099;65139;-80
2020/12/10 10:58:55;;;;;;;22.10;15.10;;;;;;;-0.33;83.74;98039.27;125309;1098;65208;-80
2020/12/10 11:01:29;;;;;;;22.57;14.37;;;;;;;-0.33;84.30;98041.88;124920;1099;65137;-80
2020/12/10 11:03:57;;;;;;;26.80;17.37;;;;;;;-0.31;84.06;98033.06;125318;1100;65150;-80
2020/12/10 11:06:23;;;;;;;20.37;14.83;;;;;;;-0.31;84.03;98025.20;124912;1100;65246;-80
2020/12/10 11:08:50;;;;;;;23.07;15.17;;;;;;;-0.33;84.08;98031.41;125221;1098;65128;-80
2020/12/10 11:11:18;;;;;;;24.70;16.60;;;;;;;-0.33;84.50;98026.17;125335;1098;65179;-80
2020/12/10 11:13:45;;;;;;;24.80;15.63;;;;;;;-0.32;84.14;98031.34;125196;1098;65163;-80
2020/12/10 11:16:13;;;;;;;22.17;15.33;;;;;;;-0.32;84.12;98020.02;124971;1100;65211;-80
2020/12/10 11:18:44;;;;;;;21.90;15.00;;;;;;;-0.33;84.09;98020.94;125195;1098;65219;-80